Terminal Aerodrome Forecast
Issued by NWS

Home | Current Version | Previous Version | Graphics & Text | Print | Product List | Glossary On
Versions: 1 2 3 4 5 6 7 8 9 10 11 12 13 14 15 16 17 18 19 20 21
134
FTUS43 KABR 080114 AAA
TAFATY
TAF AMD
KATY 080114Z 0801/0824 29020G28KT 3SM BLSN OVC015
     FM080300 30020G28KT 5SM BLSN OVC035
     FM081600 31015KT P6SM OVC025
     FM082200 31013KT P6SM OVC050=

USA.gov is the U.S. government's official web portal to all federal, state and local government web resources and services.